Time;durP1;ratioP1;P1;durP2;ratioP2;P2;SDS_P1;SDS_P2;PMS_P1;PMS_P2;Temp;Humidity;BMP_temperature;BMP_pressure;BME280_temperature;BME280_humidity;BME280_pressure;Samples;Min_cycle;Max_cycle;Signal;HPM_P1;HPM_P2
2022/10/11 00:00:56;;;;;;;8.32;4.70;;;15.10;99.90;;;18.18;61.23;98121.34;5023145;28;20053;-47
2022/10/11 00:03:24;;;;;;;8.18;4.57;;;15.10;99.90;;;18.17;61.32;98128.59;5021985;28;20052;-46
2022/10/11 00:05:53;;;;;;;7.53;4.40;;;15.10;99.90;;;18.17;61.16;98131.28;5021978;28;20049;-46
2022/10/11 00:08:21;;;;;;;6.28;4.88;;;15.10;99.90;;;18.09;61.61;98126.06;5021591;28;20046;-46
2022/10/11 00:11:05;;;;;;;8.10;4.82;;;15.10;99.90;;;17.89;61.93;98123.22;5020608;28;20050;-48
2022/10/11 00:13:33;;;;;;;8.05;6.18;;;15.00;99.90;;;17.95;61.82;98117.06;5022983;28;20050;-46
2022/10/11 00:16:08;;;;;;;10.75;6.20;;;14.90;99.90;;;17.96;61.76;98116.03;5022095;28;20336;-47
2022/10/11 00:18:36;;;;;;;11.40;7.68;;;14.90;99.90;;;17.94;61.75;98119.94;5021599;28;20056;-47
2022/10/11 00:21:09;;;;;;;8.63;6.45;;;15.00;99.90;;;17.98;61.58;98124.72;5022014;28;20054;-48
2022/10/11 00:23:38;;;;;;;15.50;7.10;;;15.00;99.90;;;17.86;61.82;98121.75;5020861;28;20244;-47
2022/10/11 00:26:08;;;;;;;9.88;7.47;;;14.90;99.90;;;17.84;61.76;98125.69;5022190;28;20056;-49
2022/10/11 00:28:37;;;;;;;12.85;7.75;;;14.80;99.90;;;17.79;61.71;98134.28;5024934;28;20060;-47
2022/10/11 00:31:17;;;;;;;12.23;7.78;;;14.80;99.90;;;17.82;61.55;98133.91;5025572;28;20052;-47
2022/10/11 00:33:45;;;;;;;10.50;6.78;;;14.80;99.90;;;17.82;61.47;98130.41;5024321;28;20355;-48
2022/10/11 00:36:16;;;;;;;14.63;7.50;;;14.80;99.90;;;17.74;61.70;98133.22;5025448;28;20060;-48
2022/10/11 00:38:46;;;;;;;16.70;9.23;;;14.70;99.90;;;17.54;62.24;98133.06;5022902;28;20271;-48
2022/10/11 00:41:15;;;;;;;13.73;8.77;;;14.60;99.90;;;17.48;62.46;98134.66;5024671;28;20050;-48
2022/10/11 00:43:43;;;;;;;11.00;7.93;;;14.50;99.90;;;17.37;62.65;98133.34;5025428;28;20052;-49
2022/10/11 00:46:17;;;;;;;17.17;8.13;;;14.40;99.90;;;17.35;62.66;98138.09;5024204;28;20053;-49
2022/10/11 00:48:49;;;;;;;;;;;14.40;99.90;;;17.23;63.29;98140.44;5025304;28;20374;-50
2022/10/11 00:51:51;;;;;;;12.10;7.75;;;14.30;99.90;;;17.12;63.55;98139.09;5024510;28;19917;-49
2022/10/11 00:54:24;;;;;;;16.45;9.02;;;14.40;99.90;;;17.22;63.07;98144.16;5025131;28;20050;-49
2022/10/11 00:56:59;;;;;;;17.98;8.45;;;14.30;99.90;;;17.03;63.82;98140.22;5023710;28;20041;-51
2022/10/11 00:59:33;;;;;;;16.70;9.50;;;14.30;99.90;;;17.22;63.15;98149.53;5024031;28;20064;-48
2022/10/11 01:02:03;;;;;;;14.93;9.45;;;14.30;99.90;;;17.31;63.01;98144.84;5023806;28;20243;-48
2022/10/11 01:04:33;;;;;;;15.55;9.25;;;14.40;99.90;;;17.37;62.75;98140.56;5025814;28;20332;-48
2022/10/11 01:07:01;;;;;;;16.25;10.77;;;14.40;99.90;;;17.40;62.53;98149.09;5023318;28;20244;-49
2022/10/11 01:09:30;;;;;;;17.65;11.27;;;14.50;99.90;;;17.42;62.51;98151.59;5023751;28;20034;-47
2022/10/11 01:12:01;;;;;;;17.48;11.13;;;14.50;99.90;;;17.43;62.51;98147.88;5024879;28;20037;-48
2022/10/11 01:15:21;;;;;;;20.23;12.18;;;14.50;99.90;;;17.44;62.36;98155.75;5023928;28;20064;-47
2022/10/11 01:18:32;;;;;;;15.45;10.68;;;14.50;99.90;;;17.47;62.19;98149.16;5023984;28;20043;-51
2022/10/11 01:21:48;;;;;;;18.20;12.75;;;14.50;99.90;;;17.47;62.16;98147.28;5024733;28;20049;-47
2022/10/11 01:24:40;;;;;;;21.63;13.23;;;14.50;99.90;;;17.51;62.06;98150.44;5021874;28;20049;-47
2022/10/11 01:27:35;;;;;;;20.70;12.88;;;14.50;99.90;;;17.38;62.25;98143.06;5024101;28;20057;-48
2022/10/11 01:30:22;;;;;;;21.38;12.45;;;14.40;99.90;;;17.13;63.02;98143.44;5025000;28;20062;-51
2022/10/11 01:33:16;;;;;;;26.20;13.43;;;14.30;99.90;;;17.15;62.83;98140.56;5023314;28;20052;-53
2022/10/11 01:36:12;;;;;;;26.13;12.57;;;14.20;99.90;;;17.21;62.69;98149.72;5023584;28;20354;-49
2022/10/11 01:38:52;;;;;;;28.80;13.30;;;14.30;99.90;;;17.20;62.74;98148.06;5022487;28;20048;-51
2022/10/11 01:41:33;;;;;;;19.50;11.15;;;14.20;99.90;;;17.24;62.69;98149.34;5022866;28;20048;-48
2022/10/11 01:44:02;;;;;;;22.85;11.82;;;14.30;99.90;;;17.26;62.66;98155.38;5023425;28;20041;-48
2022/10/11 01:46:31;;;;;;;17.40;11.77;;;14.30;99.90;;;17.29;62.73;98158.53;5023654;28;20052;-50
2022/10/11 01:49:01;;;;;;;19.75;11.60;;;14.40;99.90;;;17.35;62.44;98154.22;5023057;28;20050;-48
2022/10/11 01:51:40;;;;;;;21.80;12.40;;;14.40;99.90;;;17.34;62.37;98159.78;5023669;28;20050;-48
2022/10/11 01:54:48;;;;;;;19.50;11.73;;;14.40;99.90;;;17.27;62.59;98149.81;5023069;28;20041;-50
2022/10/11 01:57:57;;;;;;;18.27;11.70;;;14.30;99.90;;;17.29;62.36;98153.13;5023722;28;20061;-47
2022/10/11 02:00:45;;;;;;;23.02;12.48;;;14.30;99.90;;;17.23;62.55;98145.81;5024620;28;20049;-50
2022/10/11 02:03:30;;;;;;;21.02;11.93;;;14.20;99.90;;;17.17;62.70;98151.94;5022925;28;20045;-48
2022/10/11 02:06:21;;;;;;;23.55;11.65;;;14.20;99.90;;;17.15;62.72;98145.09;5023822;28;20042;-49
2022/10/11 02:08:52;;;;;;;18.52;12.75;;;14.20;99.90;;;17.07;62.84;98152.25;5023280;28;20037;-48
2022/10/11 02:11:30;;;;;;;27.23;14.18;;;14.10;99.90;;;16.99;63.35;98152.38;5024191;28;20252;-47
2022/10/11 02:14:12;;;;;;;21.10;13.88;;;14.10;99.90;;;16.92;63.42;98152.31;5022670;28;20055;-50
2022/10/11 02:16:56;;;;;;;22.00;13.15;;;14.00;99.90;;;16.96;63.51;98160.00;5022905;28;20064;-48
2022/10/11 02:19:31;;;;;;;22.25;12.50;;;14.00;99.90;;;17.05;63.26;98159.69;5022252;28;20076;-48
2022/10/11 02:22:07;;;;;;;24.73;14.07;;;14.10;99.90;;;17.09;63.31;98160.16;5022532;28;20363;-50
2022/10/11 02:24:40;;;;;;;27.02;12.80;;;14.10;99.90;;;17.16;63.12;98157.53;5023230;28;20046;-47
2022/10/11 02:27:11;;;;;;;27.75;14.20;;;14.20;99.90;;;17.24;62.85;98160.13;5022623;28;20042;-49
2022/10/11 02:29:42;;;;;;;20.80;13.02;;;14.30;99.90;;;17.28;62.87;98164.91;5023445;28;20048;-47
2022/10/11 02:32:12;;;;;;;24.55;15.13;;;14.30;99.90;;;17.31;62.76;98161.00;5022379;28;20336;-48
2022/10/11 02:35:01;;;;;;;23.25;13.15;;;14.40;99.90;;;17.33;62.46;98167.00;5021920;28;20049;-48
2022/10/11 02:38:00;;;;;;;23.35;13.90;;;14.40;99.90;;;17.27;62.71;98162.41;5023851;28;20056;-49
2022/10/11 02:40:44;;;;;;;23.75;13.35;;;14.30;99.90;;;17.25;62.45;98173.38;5022228;28;20045;-49
2022/10/11 02:43:35;;;;;;;26.52;15.50;;;14.30;99.90;;;17.23;62.84;98163.81;5022144;28;20049;-50
2022/10/11 02:46:06;;;;;;;21.48;14.48;;;14.20;99.90;;;17.19;62.99;98168.75;5022239;28;20042;-49
2022/10/11 02:48:36;;;;;;;25.52;13.98;;;14.20;99.90;;;17.12;63.12;98163.31;5022628;28;20044;-49
2022/10/11 02:51:04;;;;;;;24.67;14.07;;;14.10;99.90;;;17.08;63.11;98162.00;5020369;28;20046;-49
2022/10/11 02:53:32;;;;;;;21.17;13.50;;;14.10;99.90;;;17.05;63.17;98157.00;5022011;28;20041;-48
2022/10/11 02:56:00;;;;;;;23.83;15.13;;;14.10;99.90;;;17.07;63.21;98160.34;5022074;28;20053;-47
2022/10/11 02:58:28;;;;;;;27.23;13.93;;;14.10;99.90;;;17.09;62.95;98165.53;5022018;28;20054;-48
2022/10/11 03:00:56;;;;;;;28.75;15.32;;;14.10;99.90;;;17.12;63.07;98163.31;5022812;28;20052;-49
2022/10/11 03:03:23;;;;;;;24.17;14.38;;;14.20;99.90;;;17.06;63.15;98164.06;5022785;28;20049;-48
2022/10/11 03:06:00;;;;;;;23.02;14.75;;;14.10;99.90;;;17.08;63.09;98163.88;5022673;28;20045;-47
2022/10/11 03:08:29;;;;;;;22.42;15.48;;;14.10;99.90;;;17.08;62.92;98170.09;5022280;28;20049;-51
2022/10/11 03:10:57;;;;;;;28.77;15.65;;;14.10;99.90;;;17.01;63.00;98165.66;5022858;28;20046;-45
2022/10/11 03:13:25;;;;;;;27.02;14.95;;;14.00;99.90;;;16.90;63.42;98170.50;5022721;28;20221;-47
2022/10/11 03:15:54;;;;;;;25.45;14.77;;;13.90;99.90;;;16.95;63.47;98169.09;5023343;28;20053;-46
2022/10/11 03:18:34;;;;;;;24.50;15.07;;;14.00;99.90;;;16.94;63.28;98165.56;5022296;28;20050;-48
2022/10/11 03:21:02;;;;;;;27.92;16.02;;;14.00;99.90;;;16.96;63.35;98165.38;5022536;28;20049;-50
2022/10/11 03:23:29;;;;;;;28.90;14.82;;;13.90;99.90;;;17.00;63.21;98174.72;5022836;28;20060;-49
2022/10/11 03:25:57;;;;;;;23.52;14.93;;;14.00;99.90;;;16.96;63.41;98176.97;5022498;28;20053;-46
2022/10/11 03:28:25;;;;;;;27.13;16.23;;;14.00;99.90;;;17.01;63.25;98171.84;5021770;28;20046;-46
2022/10/11 03:30:53;;;;;;;29.42;15.95;;;14.00;99.90;;;17.07;62.99;98175.66;5022500;28;20046;-46
2022/10/11 03:33:21;;;;;;;28.27;16.63;;;14.10;99.90;;;17.12;62.81;98179.44;5022280;28;20042;-46
2022/10/11 03:35:49;;;;;;;25.77;14.43;;;14.10;99.90;;;17.13;62.84;98182.97;5022936;28;20367;-49
2022/10/11 03:38:20;;;;;;;27.52;15.93;;;14.10;99.90;;;17.15;62.99;98190.84;5022009;28;20045;-46
2022/10/11 03:40:48;;;;;;;26.20;16.02;;;14.10;99.90;;;17.11;63.10;98193.06;5019245;28;20083;-46
2022/10/11 03:43:16;;;;;;;27.33;16.10;;;14.10;99.90;;;17.12;63.15;98194.75;5022729;28;20049;-46
2022/10/11 03:45:44;;;;;;;30.23;17.00;;;14.10;99.90;;;17.18;63.14;98195.84;5022167;28;20048;-46
2022/10/11 03:48:12;;;;;;;29.02;15.93;;;14.20;99.90;;;17.17;63.34;98191.47;5021743;28;20048;-46
2022/10/11 03:50:40;;;;;;;29.23;16.17;;;14.20;99.90;;;17.22;63.16;98206.03;5022468;28;20046;-47
2022/10/11 03:53:08;;;;;;;30.42;16.85;;;14.20;99.90;;;17.28;62.94;98204.44;5022421;28;20045;-48
2022/10/11 03:55:41;;;;;;;27.95;15.52;;;14.20;99.90;;;17.23;62.80;98196.09;5021504;28;20257;-51
2022/10/11 03:58:09;;;;;;;30.20;16.05;;;14.20;99.90;;;17.29;62.56;98200.72;5021680;28;20273;-47
2022/10/11 04:00:38;;;;;;;25.35;14.68;;;14.20;99.90;;;17.31;62.69;98199.53;5022336;28;20060;-46
2022/10/11 04:03:06;;;;;;;32.58;15.93;;;14.30;99.90;;;17.31;62.34;98199.53;5025239;28;20251;-48
2022/10/11 04:05:34;;;;;;;32.92;15.82;;;14.20;99.90;;;17.26;62.61;98203.81;5025952;28;20045;-47
2022/10/11 04:08:02;;;;;;;29.92;17.60;;;14.20;99.90;;;17.26;62.66;98198.41;5025722;28;20056;-48
2022/10/11 04:10:35;;;;;;;31.90;17.67;;;14.20;99.90;;;17.20;62.83;98208.09;5025953;28;20045;-47
2022/10/11 04:13:02;;;;;;;30.27;16.58;;;14.10;99.90;;;17.13;63.06;98215.25;5025978;28;20048;-46
2022/10/11 04:15:30;;;;;;;31.70;16.80;;;14.10;99.90;;;17.13;62.89;98207.16;5025808;28;20045;-46
2022/10/11 04:17:58;;;;;;;31.38;17.25;;;14.10;99.90;;;17.14;62.93;98203.47;5025296;28;20056;-47
2022/10/11 04:20:26;;;;;;;34.30;17.67;;;14.10;99.90;;;17.13;63.15;98217.94;5025732;28;20057;-47
2022/10/11 04:22:54;;;;;;;32.70;16.90;;;14.10;99.90;;;17.16;63.04;98219.41;5025858;28;20046;-46
2022/10/11 04:25:21;;;;;;;32.88;18.63;;;14.10;99.90;;;17.16;63.19;98214.00;5025625;28;20366;-47
2022/10/11 04:27:49;;;;;;;30.27;18.02;;;14.10;99.90;;;17.18;63.05;98220.91;5025392;28;20056;-47
2022/10/11 04:30:18;;;;;;;28.38;16.17;;;14.10;99.90;;;17.15;63.10;98221.25;5025377;28;20053;-46
2022/10/11 04:32:45;;;;;;;35.13;18.65;;;14.10;99.90;;;17.11;63.01;98218.09;5025355;28;20052;-47
2022/10/11 04:35:13;;;;;;;31.88;16.80;;;14.10;99.90;;;17.10;63.11;98221.84;5026398;28;20053;-46
2022/10/11 04:37:41;;;;;;;31.30;16.48;;;14.10;99.90;;;17.12;62.99;98227.88;5025097;28;20348;-46
2022/10/11 04:40:10;;;;;;;28.38;17.13;;;14.10;99.90;;;17.06;63.32;98227.75;5025364;28;20045;-48
2022/10/11 04:42:38;;;;;;;33.13;16.65;;;14.00;99.90;;;17.00;63.27;98228.53;5025410;28;20049;-47
2022/10/11 04:45:08;;;;;;;28.50;15.23;;;14.00;99.90;;;17.08;63.42;98234.66;5025600;28;20042;-49
2022/10/11 04:47:36;;;;;;;29.95;15.90;;;14.10;99.90;;;17.18;63.33;98230.84;5024894;28;20042;-47
2022/10/11 04:50:05;;;;;;;31.33;17.20;;;14.10;99.90;;;17.24;62.91;98230.06;5025298;28;20048;-46
2022/10/11 04:52:32;;;;;;;29.35;18.75;;;14.20;99.90;;;17.18;62.90;98234.34;5024962;28;20038;-46
2022/10/11 04:55:00;;;;;;;27.73;16.10;;;14.20;99.90;;;17.18;62.88;98228.97;5025174;28;20041;-49
2022/10/11 04:57:28;;;;;;;28.00;16.52;;;14.20;99.90;;;17.21;62.95;98242.03;5023924;28;20050;-48
2022/10/11 04:59:56;;;;;;;24.75;14.85;;;14.20;99.90;;;17.11;62.98;98236.94;5025136;28;20050;-46
2022/10/11 05:02:24;;;;;;;28.67;16.75;;;14.10;99.90;;;17.10;62.79;98232.59;5025001;28;20240;-47
2022/10/11 05:04:51;;;;;;;27.25;15.60;;;14.00;99.90;;;17.09;62.67;98236.28;5025412;28;20353;-47
2022/10/11 05:07:19;;;;;;;27.27;15.77;;;14.00;99.90;;;17.13;62.91;98240.28;5022848;28;20056;-47
2022/10/11 05:09:47;;;;;;;32.75;16.08;;;14.10;99.90;;;17.14;62.88;98241.13;5024911;28;20044;-47
2022/10/11 05:12:15;;;;;;;33.35;17.20;;;14.10;99.90;;;17.14;62.86;98241.13;5024733;28;20052;-46
2022/10/11 05:14:44;;;;;;;26.70;16.33;;;14.10;99.90;;;17.15;62.65;98244.66;5024067;28;20053;-46
2022/10/11 05:17:12;;;;;;;27.60;17.50;;;14.10;99.90;;;17.11;62.78;98253.09;5024136;28;20052;-47
2022/10/11 05:19:40;;;;;;;31.73;17.55;;;14.00;99.90;;;17.03;62.96;98249.69;5024684;28;20041;-49
2022/10/11 05:22:07;;;;;;;30.98;17.52;;;14.00;99.90;;;17.07;62.68;98251.78;5024680;28;20048;-46
2022/10/11 05:24:36;;;;;;;29.10;16.83;;;14.00;99.90;;;17.11;62.79;98252.25;5024540;28;20053;-46
2022/10/11 05:27:04;;;;;;;30.58;16.73;;;14.00;99.90;;;17.10;62.76;98254.13;5024665;28;20042;-47
2022/10/11 05:29:32;;;;;;;28.17;17.75;;;14.10;99.90;;;17.08;62.89;98264.22;5024022;28;20060;-48
2022/10/11 05:31:59;;;;;;;29.15;15.70;;;14.00;99.90;;;17.06;62.88;98262.72;5024445;28;20046;-47
2022/10/11 05:34:27;;;;;;;33.97;16.98;;;14.00;99.90;;;17.07;62.76;98264.41;5024854;28;20250;-47
2022/10/11 05:36:56;;;;;;;31.63;17.23;;;14.00;99.90;;;17.06;62.96;98270.81;5024116;28;20243;-47
2022/10/11 05:39:23;;;;;;;30.42;16.63;;;14.00;99.90;;;17.03;62.90;98274.72;5024348;28;20058;-47
2022/10/11 05:41:51;;;;;;;26.70;16.75;;;14.00;99.90;;;17.08;62.93;98276.88;5024232;28;20051;-46
2022/10/11 05:44:19;;;;;;;30.38;18.38;;;14.00;99.90;;;16.98;63.15;98273.59;5024278;28;20049;-49
2022/10/11 05:46:47;;;;;;;34.50;18.35;;;13.90;99.90;;;16.84;63.39;98283.34;5024149;28;20231;-47
2022/10/11 05:49:15;;;;;;;33.33;18.17;;;13.80;99.90;;;16.72;63.65;98278.41;5024153;28;20052;-49
2022/10/11 05:51:42;;;;;;;29.85;17.73;;;13.70;99.90;;;16.68;63.76;98285.16;5023944;28;20323;-49
2022/10/11 05:54:10;;;;;;;32.17;18.55;;;13.70;99.90;;;16.77;63.71;98285.06;5025048;28;20046;-47
2022/10/11 05:56:38;;;;;;;33.60;17.10;;;13.70;99.90;;;16.85;63.58;98296.63;5022908;28;20217;-48
2022/10/11 05:59:06;;;;;;;31.45;17.63;;;13.80;99.90;;;16.94;63.29;98297.34;5024122;28;20050;-49
2022/10/11 06:01:34;;;;;;;33.55;18.50;;;13.90;99.90;;;16.92;63.35;98297.56;5023850;28;20054;-46
2022/10/11 06:04:03;;;;;;;32.78;18.45;;;13.90;99.90;;;16.85;63.28;98299.31;5023922;28;20049;-48
2022/10/11 06:06:31;;;;;;;31.23;17.50;;;13.80;99.90;;;16.92;63.27;98304.75;5023270;28;20052;-46
2022/10/11 06:08:59;;;;;;;33.38;19.38;;;13.80;99.90;;;16.92;63.04;98305.63;5023239;28;20055;-46
2022/10/11 06:11:27;;;;;;;32.97;17.67;;;13.80;99.90;;;16.93;63.21;98309.97;5023710;28;20351;-46
2022/10/11 06:13:57;;;;;;;30.33;17.67;;;13.80;99.90;;;16.93;63.22;98311.81;5023707;28;20052;-46
2022/10/11 06:16:25;;;;;;;32.75;18.17;;;13.80;99.90;;;16.87;63.40;98313.41;5023766;28;20045;-47
2022/10/11 06:18:55;;;;;;;30.95;19.05;;;13.80;99.90;;;16.88;63.30;98311.53;5023545;28;20050;-48
2022/10/11 06:21:23;;;;;;;27.08;17.58;;;13.80;99.90;;;16.86;63.36;98317.09;5024025;28;20054;-47
2022/10/11 06:23:52;;;;;;;29.00;16.80;;;13.90;99.90;;;16.86;63.52;98310.88;5022476;28;20049;-48
2022/10/11 06:26:28;;;;;;;35.00;16.98;;;13.90;99.90;;;16.84;63.29;98318.31;5022761;28;20241;-46
2022/10/11 06:28:57;;;;;;;26.90;18.02;;;13.80;99.90;;;16.92;63.19;98315.53;5023844;28;20383;-48
2022/10/11 06:31:25;;;;;;;30.92;18.00;;;13.80;99.90;;;16.95;63.09;98325.91;5023893;28;20370;-47
2022/10/11 06:33:53;;;;;;;31.08;18.33;;;13.80;99.90;;;16.85;63.07;98326.19;5022018;28;20052;-47
2022/10/11 06:36:21;;;;;;;31.17;18.27;;;13.80;99.90;;;16.86;63.39;98329.72;5023145;28;20056;-47
2022/10/11 06:38:53;;;;;;;28.85;17.92;;;13.80;99.90;;;16.89;63.31;98332.88;5022299;28;20071;-46
2022/10/11 06:41:29;;;;;;;30.98;17.38;;;13.80;99.90;;;16.95;63.35;98330.47;5020370;28;20252;-49
2022/10/11 06:43:57;;;;;;;29.08;18.45;;;13.90;99.90;;;17.00;63.15;98338.81;5022692;28;20049;-46
2022/10/11 06:46:27;;;;;;;27.58;16.90;;;13.90;99.90;;;16.95;63.27;98334.00;5022785;28;20048;-46
2022/10/11 06:48:55;;;;;;;27.52;16.95;;;13.90;99.90;;;16.93;63.23;98336.03;5023173;28;20378;-49
2022/10/11 06:51:24;;;;;;;24.33;15.82;;;13.90;99.90;;;16.98;62.96;98340.84;5023100;28;20056;-46
2022/10/11 06:53:56;;;;;;;24.05;14.88;;;13.90;99.90;;;17.03;62.80;98344.66;5022930;28;20046;-50
2022/10/11 06:56:26;;;;;;;19.70;14.73;;;14.00;99.90;;;17.08;62.92;98350.31;5022402;28;20056;-48
2022/10/11 06:58:56;;;;;;;26.63;13.77;;;14.10;99.90;;;17.14;62.77;98343.38;5023089;28;20055;-47
2022/10/11 07:01:24;;;;;;;26.15;17.58;;;14.10;99.90;;;17.18;62.35;98347.34;5023328;28;20053;-48
2022/10/11 07:03:54;;;;;;;26.30;14.88;;;14.10;99.90;;;17.23;62.42;98352.97;5022827;28;20370;-49
2022/10/11 07:06:27;;;;;;;26.15;14.35;;;14.20;99.90;;;17.19;62.33;98362.44;5023006;28;20362;-47
2022/10/11 07:08:55;;;;;;;22.65;14.23;;;14.10;99.90;;;17.13;62.28;98365.88;5022667;28;20042;-50
2022/10/11 07:11:26;;;;;;;21.90;13.88;;;14.00;99.90;;;17.19;62.19;98359.75;5023210;28;20045;-46
2022/10/11 07:13:57;;;;;;;21.83;12.93;;;14.10;99.90;;;17.20;61.97;98360.63;5022718;28;20052;-50
2022/10/11 07:16:27;;;;;;;24.85;15.60;;;14.10;99.90;;;17.22;62.03;98369.34;5022451;28;20072;-49
2022/10/11 07:18:58;;;;;;;22.05;13.57;;;14.10;99.90;;;17.16;62.21;98370.91;5022401;28;20196;-47
2022/10/11 07:21:29;;;;;;;24.95;14.27;;;14.10;99.90;;;17.20;61.99;98376.75;5022705;28;20052;-50
2022/10/11 07:23:58;;;;;;;26.73;13.55;;;14.10;99.90;;;17.22;61.64;98375.53;5024236;28;20068;-48
2022/10/11 07:26:27;;;;;;;21.17;12.30;;;14.10;99.90;;;17.17;61.62;98379.81;5042799;28;20067;-47
2022/10/11 07:28:55;;;;;;;29.42;14.68;;;14.00;99.90;;;17.19;61.60;98381.28;5042040;28;20075;-46
2022/10/11 07:31:25;;;;;;;22.60;13.23;;;14.00;99.90;;;17.16;61.47;98384.38;5042076;28;20050;-49
2022/10/11 07:33:53;;;;;;;22.15;14.20;;;14.00;99.90;;;17.18;61.41;98385.00;5042144;28;20224;-48
2022/10/11 07:36:22;;;;;;;20.67;13.45;;;14.00;99.90;;;17.10;61.50;98379.72;5042157;28;20049;-48
2022/10/11 07:38:50;;;;;;;21.67;12.68;;;14.00;99.90;;;17.10;61.73;98385.94;5041971;28;20075;-46
2022/10/11 07:41:18;;;;;;;17.90;13.20;;;14.00;99.90;;;17.07;61.50;98382.78;5042235;28;20224;-47
2022/10/11 07:43:48;;;;;;;25.45;14.60;;;14.00;99.90;;;17.11;61.53;98384.06;5041919;28;20274;-46
2022/10/11 07:46:17;;;;;;;19.75;12.50;;;14.00;99.90;;;17.10;61.59;98383.25;5042275;28;20053;-47
2022/10/11 07:48:45;;;;;;;21.48;12.88;;;14.00;99.90;;;17.13;61.48;98380.16;5041600;28;20056;-51
2022/10/11 07:51:20;;;;;;;22.13;12.75;;;14.00;99.90;;;17.18;61.45;98382.31;5041960;28;20344;-49
2022/10/11 07:53:52;;;;;;;22.73;12.55;;;14.10;99.90;;;17.23;61.57;98389.81;5042159;28;20045;-48
2022/10/11 07:56:28;;;;;;;21.83;12.65;;;14.10;99.90;;;17.25;61.40;98391.34;5040870;28;20046;-49
2022/10/11 07:58:59;;;;;;;22.30;11.90;;;14.20;99.90;;;17.23;61.36;98390.66;5041887;28;20041;-46
2022/10/11 08:01:30;;;;;;;18.50;12.23;;;14.20;99.90;;;17.24;61.34;98396.88;5042492;28;20045;-48
2022/10/11 08:03:58;;;;;;;18.88;12.23;;;14.10;99.90;;;17.23;60.85;98401.41;5041790;28;20063;-48
2022/10/11 08:06:31;;;;;;;21.20;12.07;;;14.10;99.90;;;17.22;60.91;98389.00;5041110;28;20080;-46
2022/10/11 08:09:01;;;;;;;20.27;12.15;;;14.10;99.90;;;17.22;61.04;98398.94;5041887;28;20055;-50
2022/10/11 08:11:35;;;;;;;24.55;12.65;;;14.10;99.90;;;17.13;61.39;98398.16;5041897;28;20045;-47
2022/10/11 08:14:07;;;;;;;20.65;12.27;;;14.00;99.90;;;17.14;61.44;98399.84;5040366;28;20049;-47
2022/10/11 08:16:39;;;;;;;29.38;12.98;;;14.00;99.90;;;17.10;61.28;98404.78;5041324;28;20045;-47
2022/10/11 08:19:07;;;;;;;22.08;12.43;;;14.00;99.90;;;17.15;61.47;98406.91;5041838;28;20048;-47
2022/10/11 08:21:35;;;;;;;25.35;11.73;;;14.00;99.90;;;17.17;61.15;98399.47;5041867;28;20048;-46
2022/10/11 08:24:05;;;;;;;23.20;13.02;;;14.10;99.90;;;17.19;61.44;98400.13;5040748;28;20055;-45
2022/10/11 08:26:33;;;;;;;21.00;11.88;;;14.10;99.90;;;17.20;61.35;98406.34;5041741;28;20049;-47
2022/10/11 08:29:02;;;;;;;23.40;12.60;;;14.10;99.90;;;17.21;61.46;98410.69;5041720;28;20052;-46
2022/10/11 08:31:31;;;;;;;20.65;12.73;;;14.20;99.90;;;17.22;61.29;98407.00;5041877;28;20257;-46
2022/10/11 08:33:59;;;;;;;19.10;12.95;;;14.20;99.90;;;17.23;61.12;98409.47;5041001;28;20049;-50
2022/10/11 08:36:27;;;;;;;22.20;12.95;;;14.20;99.90;;;17.29;61.23;98408.78;5041305;28;20045;-48
2022/10/11 08:38:55;;;;;;;25.98;15.45;;;14.20;99.90;;;17.35;61.18;98411.72;5041424;28;20052;-47
2022/10/11 08:41:37;;;;;;;28.20;15.82;;;14.30;99.90;;;17.40;61.18;98412.00;5041560;28;20067;-48
2022/10/11 08:44:28;;;;;;;20.98;14.40;;;14.30;99.90;;;17.40;61.20;98406.63;5042065;28;20071;-49
2022/10/11 08:47:46;;;;;;;25.77;14.43;;;14.30;99.90;;;17.37;60.83;98404.28;5041061;28;20049;-48
2022/10/11 08:50:21;;;;;;;20.63;13.98;;;14.30;99.90;;;17.33;60.84;98403.81;5044681;28;20057;-47
2022/10/11 08:53:12;;;;;;;20.30;14.93;;;14.30;99.90;;;17.39;60.78;98404.94;5045029;28;20046;-47
2022/10/11 08:55:48;;;;;;;24.67;13.32;;;14.30;99.90;;;17.42;60.65;98408.09;5044497;28;20045;-46
2022/10/11 08:58:28;;;;;;;19.58;14.00;;;14.30;99.90;;;17.46;60.58;98397.78;5043237;28;20075;-48
2022/10/11 09:00:56;;;;;;;25.48;17.40;;;14.40;99.90;;;17.43;60.50;98407.09;5043954;28;20056;-47
2022/10/11 09:03:46;;;;;;;20.10;13.48;;;14.40;99.90;;;17.51;60.46;98406.16;5044857;28;20105;-47
2022/10/11 09:06:53;;;;;;;30.05;15.15;;;14.50;99.90;;;17.55;60.58;98404.75;5044013;28;20056;-47
2022/10/11 09:09:24;;;;;;;20.27;13.65;;;14.50;99.90;;;17.62;59.96;98410.22;5044524;28;20049;-47
2022/10/11 09:12:04;;;;;;;19.52;12.45;;;14.50;99.90;;;17.50;60.30;98410.69;5044642;28;20046;-48
2022/10/11 09:14:43;;;;;;;18.25;13.23;;;14.50;99.90;;;17.51;60.08;98412.38;5044579;28;20071;-47
2022/10/11 09:17:21;;;;;;;23.90;13.02;;;14.40;99.90;;;17.58;60.19;98408.94;5044260;28;20244;-46
2022/10/11 09:20:31;;;;;;;23.30;12.70;;;14.50;99.90;;;17.56;60.16;98405.59;5044412;28;20225;-46
2022/10/11 09:23:07;;;;;;;24.45;13.77;;;14.50;99.90;;;17.52;59.74;98400.59;5044418;28;20071;-47
2022/10/11 09:25:54;;;;;;;21.27;13.48;;;14.40;99.90;;;17.47;59.78;98410.25;5042893;28;20083;-46
2022/10/11 09:29:24;;;;;;;19.35;13.77;;;14.50;99.90;;;17.54;60.17;98413.00;5042655;28;20049;-48
2022/10/11 09:31:55;;;;;;;18.95;13.13;;;14.60;99.90;;;17.66;59.92;98417.75;5044292;28;20120;-46
2022/10/11 09:34:31;;;;;;;25.42;14.77;;;14.60;99.90;;;17.71;59.96;98417.16;5043196;28;20041;-49
2022/10/11 09:37:41;;;;;;;21.17;13.00;;;14.70;99.90;;;17.75;59.80;98409.56;5043894;28;20050;-46
2022/10/11 09:40:09;;;;;;;21.15;12.23;;;14.80;99.90;;;17.82;59.62;98413.19;5044204;28;20274;-46
2022/10/11 09:42:37;;;;;;;20.80;13.77;;;14.80;99.90;;;17.80;59.66;98410.66;5040974;28;20045;-46
2022/10/11 09:45:17;;;;;;;29.15;13.38;;;14.90;99.90;;;17.87;59.56;98408.94;5043873;28;20045;-47
2022/10/11 09:47:45;;;;;;;25.20;15.52;;;14.90;99.90;;;17.84;59.45;98403.06;5043539;28;20048;-47
2022/10/11 09:50:19;;;;;;;20.70;15.45;;;14.90;99.90;;;17.85;59.18;98405.56;5042998;28;20042;-46
2022/10/11 09:52:50;;;;;;;21.05;16.25;;;14.80;99.90;;;17.78;59.22;98410.03;5043970;28;20343;-47
2022/10/11 09:55:43;;;;;;;18.95;12.43;;;14.80;99.90;;;17.77;58.94;98411.03;5043881;28;20041;-46
2022/10/11 09:58:34;;;;;;;19.98;13.70;;;14.80;99.90;;;17.75;58.90;98409.56;5042837;28;20049;-50
2022/10/11 10:01:08;;;;;;;22.58;14.57;;;14.70;99.90;;;17.77;58.97;98418.28;5043640;28;20049;-47
2022/10/11 10:03:43;;;;;;;18.45;11.90;;;14.80;99.90;;;17.94;58.87;98411.69;5042273;28;20053;-46
2022/10/11 10:06:24;;;;;;;16.92;12.32;;;15.00;99.90;;;18.04;58.91;98406.00;5043716;28;20055;-48
2022/10/11 10:08:54;;;;;;;18.55;11.73;;;15.10;99.90;;;18.12;58.48;98407.72;5043399;28;20067;-46
2022/10/11 10:11:21;;;;;;;15.85;10.10;;;15.20;99.90;;;18.05;58.46;98413.06;5043760;28;20045;-49
2022/10/11 10:13:56;;;;;;;19.77;11.93;;;15.20;99.90;;;18.12;58.51;98411.25;5042383;28;20056;-48
2022/10/11 10:16:31;;;;;;;14.10;10.70;;;15.20;99.90;;;18.21;57.96;98406.59;5043319;28;20049;-46
2022/10/11 10:19:13;;;;;;;17.80;10.50;;;15.30;99.90;;;18.31;58.34;98415.19;5042110;28;20481;-46
2022/10/11 10:21:52;;;;;;;17.70;10.50;;;15.40;99.90;;;18.34;57.97;98409.44;5043573;28;20049;-48
2022/10/11 10:24:41;;;;;;;15.48;10.30;;;15.40;99.90;;;18.40;57.92;98405.13;5042307;28;20052;-48
2022/10/11 10:27:29;;;;;;;14.63;9.55;;;15.50;99.90;;;18.45;57.70;98411.59;5041857;28;20049;-47
2022/10/11 10:30:13;;;;;;;13.23;9.60;;;15.50;99.90;;;18.40;57.33;98410.50;5043259;28;20045;-46
2022/10/11 10:33:04;;;;;;;18.45;10.15;;;15.50;99.90;;;18.26;56.96;98414.91;5043572;28;20051;-46
2022/10/11 10:35:44;;;;;;;14.90;9.65;;;15.40;99.90;;;18.38;57.03;98409.84;5042253;28;20184;-46